Milford, Utah Weather observations

Data are for observation ending at time listed.
 Day   Time    Ave.   Ave.  Ave.  Vector   Max.   Stn.    Total    Solar   Ave.  
  of    of     Air    Rel.  Wind   Wind    Wind   Baro.  Precip.   Rad.    Soil  
Year   Day     Temp.  Hum.  Speed  Dir.    Gust   Pres.                    Temp. 
2014   (MST)    F      %     mph   deg.    mph     mb.     in.     W/m2     F   
------------------------------------------------------------------------------
 297   10:50   67.7    30    6.5   177     13.1   853.0    0.00     509    99999.0
 297   11:00   68.7    30    4.9   188     10.0   853.3    0.00     523    99999.0
 297   11:10   69.0    29    5.7   189     12.6   853.4    0.00     535    99999.0
 297   11:20   69.5    29    4.9   187     10.2   853.5    0.00     545    99999.0
 297   11:30   70.6    28    4.7   192     10.8   853.6    0.00     553    58.4
 297   11:40   71.5    27    5.9   181     12.4   853.6    0.00     559    99999.0
 297   11:50   72.3    26    5.5   186     12.4   853.7    0.00     566    99999.0
 297   12:00   73.0    25    5.1   188     11.1   853.7    0.00     569    60.8
 297   12:10   73.0    25    4.8   191     10.1   853.8    0.00     572    99999.0
 297   12:20   73.1    25    5.0   183     11.9   853.7    0.00     573    99999.0
 297   12:30   72.9    24    6.0   180     13.4   853.6    0.00     573    58.7
 297   12:40   73.9    23    4.8   181     12.0   853.4    0.00     571    58.4
 297   12:50   74.4    22    5.7   178     12.0   853.3    0.00     566    58.4
 297   13:00   74.9    22    4.7   184      9.1   853.3    0.00     561    58.4
 297   13:10   75.5    21    5.6   178     12.2   853.2    0.00     556    58.5
 297   13:20   75.5    21    4.7   187      9.3   853.2    0.00     548    58.5
 297   13:30   76.2    20    5.1   181     10.2   853.1    0.00     539    58.5
 297   13:40   75.7    20    4.7   191     11.7   853.1    0.00     529    58.5
 297   13:50   76.6    19    4.4   184     11.6   853.0    0.00     517    58.5
 297   14:00   76.1    19    5.0   182     10.4   852.9    0.00     503    58.6
 297   14:10   76.5    19    4.8   187      9.1   852.7    0.00     489    58.7
 297   14:20   76.1    19    5.5   183     11.5   852.6    0.00     475    58.6
 297   14:30   75.6    19    4.2   188      9.5   852.3    0.00     365    58.7
 297   14:40   75.9    18    5.1   193     10.4   851.9    0.00     283    58.7
 297   14:50   76.0    17    4.9   192     12.9   851.7    0.00     423    58.7
 297   15:00   76.4    16    5.9   185     10.4   851.6    0.00     403    58.8
 297   15:10   76.5    16    5.3   186      8.8   851.7    0.00     382    58.8
 297   15:20   76.9    15    4.7   193      8.5   851.9    0.00     359    58.9
 297   15:30   76.8    16    4.4   188     10.4   852.0    0.00     336    58.9
 297   15:40   76.8    16    4.6   187      9.9   852.0    0.00     312    59.0
 297   15:50   76.1    16    5.0   183     12.6   851.9    0.00     214    59.1
 297   16:00   75.4    17    3.3   197      7.5   851.7    0.00      22    59.1
 297   16:10   75.2    17    3.4   193      8.4   851.4    0.00      21    59.2
 297   16:20   75.0    17    3.4   188      8.4   851.1    0.00      19    59.2
 297   16:30   74.9    17    4.3   180      9.2   850.9    0.00      22    59.3
 297   16:40   74.7    17    4.3   176     10.2   850.8    0.00      18    59.3
 297   16:50   74.0    18    2.9   189      8.4   850.7    0.00      15    59.3
 297   17:00   73.2    18    2.0   203      4.7   850.5    0.00      13    59.4
 297   17:10   72.3    19    1.7   201      3.9   850.4    0.00      12    59.5
 297   17:20   71.4    19    0.8   218      2.8   850.2    0.00      11    59.6
 297   17:30   70.7    20    0.4   239      2.5   850.1    0.00       7    59.6
 297   17:40   69.3    21    0.1   263      0.7   850.0    0.00       6    59.7
 297   17:50   68.0    22    0.0     0      0.0   849.9    0.00       2    59.6
 297   18:00   66.3    25    0.1    57      1.2   849.8    0.00       0    59.7
 297   18:10   63.7    29    0.3    39      1.9   849.7    0.00       0    59.8
 297   18:20   61.8    32    0.2    26      1.5   849.7    0.00       0    59.9
 297   18:30   61.2    32    0.4   346      1.8   849.7    0.00       0    59.9
 297   18:40   60.6    32    0.6   106      2.6   849.7    0.00       0    59.8
 297   18:50   59.3    34    0.4   176      1.3   849.7    0.00       0    59.9
 297   19:00   58.0    36    1.2   154      2.6   849.7    0.00       0    60.0
 297   19:10   56.9    37    0.6   218      2.0   849.6    0.00       0    60.0
 297   19:20   56.9    36    0.2   248      1.4   849.5    0.00       0    60.0
 297   19:30   57.7    38    0.8   300      1.7   849.4    0.00       0    60.0
 297   19:40   58.4    35    0.8   252      2.9   849.3    0.00       0    60.1
 297   19:50   60.0    32    1.2   228      5.1   849.3    0.00       0    60.1
 297   20:00   59.2    33    2.5   193      5.0   849.3    0.00       0    60.2
 297   20:10   58.8    34    3.3   193      6.0   849.4    0.00       0    60.1
 297   20:20   57.8    36    3.2   197      6.4   849.4    0.00       0    60.3
 297   20:30   58.0    34    3.7   194      7.8   849.5    0.00       0    60.1
 297   20:40   57.6    35    2.7   195      4.4   849.6    0.00       0    60.2
 297   20:50   56.2    37    2.3   228      4.6   849.6    0.00       0    60.2
 297   21:00   56.1    37    2.4   238      6.1   849.6    0.00       0    60.2
 297   21:10   54.9    38    2.3   230      4.2   849.6    0.00       0    60.3
 297   21:20   52.2    42    2.7   212      5.8   849.6    0.00       0    60.4
 297   21:30   52.5    42    3.2   205      7.7   849.5    0.00       0    60.4
 297   21:40   54.3    39    4.2   195      6.9   849.6    0.00       0    60.4
 297   21:50   55.3    38    3.8   203      7.2   849.6    0.00       0    60.4
 297   22:00   54.6    39    3.9   202      7.5   849.6    0.00       0    60.4
 297   22:10   55.0    39    3.5   201      6.5   849.7    0.00       0    60.4
 297   22:20   54.6    40    2.4   212      4.7   849.8    0.00       0    60.4
 297   22:30   55.6    39    2.5   208      5.2   849.8    0.00       0    60.5
 297   22:40   55.4    40    2.8   195      5.0   849.8    0.00       0    60.4
 297   22:50   54.7    41    2.8   211      6.6   849.8    0.00       0    60.4
 297   23:00   54.4    41    2.9   207      5.8   849.7    0.00       0    60.4
 297   23:10   51.6    45    2.7   202      4.8   849.7    0.00       0    60.5
 297   23:20   50.3    47    2.1   184      4.5   849.7    0.00       0    60.6
 297   23:30   49.4    48    1.7   202      3.6   849.5    0.00       0    60.5
 297   23:40   50.5    47    2.0   192      4.2   849.4    0.00       0    60.6
 297   23:50   52.0    44    2.2   207      4.5   849.3    0.00       0    60.6
 298    0:00   52.1    42    2.0   223      4.5   849.3    0.00       0    60.6
 298    0:10   51.3    39    2.2   220      4.2   849.3    0.00       0    99999.0
 298    0:20   50.8    39    2.5   212      4.8   849.3    0.00       0    61.0
 298    0:30   49.7    40    2.3   220      4.4   849.4    0.00       0    60.5
 298    0:40   49.2    41    2.2   220      4.3   849.4    0.00       0    60.3
 298    0:50   49.4    42    1.9   210      3.5   849.3    0.00       0    60.4
 298    1:00   49.2    44    2.4   204      5.0   849.3    0.00       0    60.3
 298    1:10   50.3    44    1.9   226      5.2   849.3    0.00       0    60.3
 298    1:20   51.1    44    1.6   231      3.5   849.1    0.00       0    60.4
 298    1:30   50.6    44    1.8   207      4.7   849.2    0.00       0    60.3
 298    1:40   47.2    47    2.4   211      3.9   849.2    0.00       0    60.5
 298    1:50   46.4    49    1.7   216      3.6   849.2    0.00       0    60.4
 298    2:00   47.1    50    1.5   242      3.1   849.1    0.00       0    60.3
 298    2:10   47.0    50    1.5   259      3.7   849.1    0.00       0    60.4
 298    2:20   45.3    53    0.8   270      2.7   849.0    0.00       0    60.3
 298    2:30   44.9    54    0.9    19      2.3   849.0    0.00       0    60.3
 298    2:40   43.6    56    0.8    31      2.5   848.9    0.00       0    60.3
 298    2:50   43.0    58    0.3   342      1.4   848.7    0.00       0    60.4
 298    3:00   43.0    60    0.2     2      1.2   848.5    0.00       0    60.4
 298    3:10   42.7    60    0.0     0      0.0   848.4    0.00       0    60.4
 298    3:20   42.8    59    0.3   287      1.3   848.3    0.00       0    60.4
 298    3:30   42.7    62    0.5   260      1.5   848.2    0.00       0    60.5
 298    3:40   42.4    63    1.0   266      2.6   848.1    0.00       0    60.5
 298    3:50   42.0    63    1.3   257      2.4   848.1    0.00       0    60.6
 298    4:00   41.8    61    1.9   262      2.8   848.0    0.00       0    60.7
 298    4:10   41.2    62    1.3   270      3.1   848.0    0.00       0    60.5
 298    4:20   40.2    64    1.0   260      2.6   848.1    0.00       0    60.5
 298    4:30   40.2    65    0.6   254      3.1   847.9    0.03       0    60.3
 298    4:40   39.3    65    0.6    72      3.4   847.9    0.02       0    60.1
 298    4:50   38.4    67    0.1   275      1.3   847.9    0.03       0    60.1
 298    5:00   38.4    69    0.1   276      1.5   847.7    0.00       0    60.2
 298    5:10   38.8    71    0.6   263      1.9   847.7    0.00       0    60.2
 298    5:20   39.0    71    0.8   248      2.3   847.6    0.00       0    60.3
 298    5:30   38.8    72    0.5   233      2.2   847.5    0.00       0    60.1
 298    5:40   38.4    72    0.6   188      2.1   847.4    0.00       0    60.2
 298    5:50   38.0    72    0.9   217      2.2   847.5    0.00       0    59.9
 298    6:00   38.5    71    2.2   189      5.0   847.4    0.00       0    59.8
 298    6:10   38.6    70    2.0   179      5.3   847.4    0.00       0    60.0
 298    6:20   39.2    69    1.9   185      3.2   847.4    0.00       0    60.0
 298    6:30   40.7    68    2.2   186      5.2   847.3    0.00       0    60.0
 298    6:40   40.6    67    1.6   123      4.2   847.4    0.00       0    60.1
 298    6:50   39.7    68    0.9    20      2.6   847.5    0.00       0    60.1
 298    7:00   40.3    68    0.5   127      3.3   847.5    0.00       5    59.9
 298    7:10   40.3    67    0.6   170      2.4   847.4    0.00       6    99999.0
 298    7:20   40.9    66    1.3   201      3.3   847.4    0.00      13    59.2
 298    7:30   41.5    65    2.0   157      3.9   847.5    0.00      54    59.1
 298    7:40   43.8    63    1.6   200      5.3   847.5    0.00      92    59.0
 298    7:50   49.3    56    2.0   230      5.6   847.7    0.00     124    58.9
 298    8:00   52.1    50    3.2   247      7.1   848.1    0.00     150    58.9
 298    8:10   54.4    44    3.1   240      7.3   848.5    0.00     176    58.9
 298    8:20   56.1    41    3.4   241      8.3   848.8    0.00     200    58.8
 298    8:30   56.7    41    2.6   246      5.6   849.2    0.00     224    58.8
 298    8:40   58.2    40    2.6   234      5.7   849.6    0.00     248    58.8
 298    8:50   58.5    40    2.9   236      8.2   849.9    0.00     271    58.8
 298    9:00   59.3    39    3.1   196      6.7   850.1    0.00     292    58.8
 298    9:10   60.5    38    3.5   194      6.4   850.1    0.00     315    58.7
 298    9:20   61.3    37    4.4   187      8.8   850.2    0.00     337    58.7
 298    9:30   61.8    36    5.3   190     10.2   850.3    0.00     359    58.7
 298    9:40   62.2    36    5.5   192     12.2   850.3    0.00     381    58.7
 298    9:50   62.7    36    5.2   189     10.1   850.3    0.00     406    58.7
 298   10:00   63.6    36    4.9   195     10.2   850.3    0.00     419    58.6
 298   10:10   65.5    35    5.2   187     11.4   850.5    0.00     540    58.6
 298   10:20   67.0    34    6.6   186     11.0   850.5    0.00     435    58.6
 298   10:30   67.3    34    6.8   188     13.8   850.6    0.00     374    58.6
 298   10:40   68.9    33    7.3   185     17.6   850.6    0.00     380    58.6

Return to Milford, Utah graphs page.


Western Regional Climate Center,wrcc@dri.edu